• Join FlightAware (Why Join?)
  • Login
  • US Flag 
10:58AM EDT


 

Airport Tracker/Info


-or-


 

Live Flight TrackerFlight Track Log ✈ CPZ5833 ✈ 28-Dec-2013 ✈ KSFO - KLAX

Flight Track Log - Related Links

Times and Time Zones

All times are in EST time to prevent confusion due to time zone crossing. See the CPZ5833 flight status page for this flight to view local times or setup timezone preferences in your user account.

Time Position Orientation Groundspeed Altitude Reporting Facility
EST Latitude Longitude Course Direction KTS MPH feet Rate Location/Type
11:27AM 37.6500 -122.3667 132° Southeast 155 178 1,800  Level Northern Cal TRACON
11:28AM 37.6781 -122.3939 322° Northwest 236 272 3,200 2,400 Climbing Oakland Center
11:29AM 37.6286 -122.4525 223° Southwest 269 310 6,200 2,940 Climbing Oakland Center
11:30AM 37.2011 -122.0279 136° Southeast  Level FlightAware Approximate
11:30AM 37.5467 -122.4547 181° South 313 360 9,200  Level Oakland Center
11:31AM 37.1132 -121.9119 132° Southeast  Level FlightAware Approximate
11:31AM 37.4653 -122.4078 155° Southeast 322 371 11,500  Level Oakland Center
11:32AM 37.0272 -121.7935 132° Southeast  Level FlightAware Approximate
11:32AM 37.3908 -122.3150 135° Southeast 373 429 13,400  Level Oakland Center
11:33AM 37.3183 -122.2136 132° Southeast 389 448 16,200 2,340 Climbing Oakland Center
11:34AM 37.2442 -122.1108 132° Southeast 397 457 18,200 1,800 Climbing Oakland Center
11:35AM 37.1483 -121.9806 133° Southeast 426 490 20,000 1,860 Climbing Oakland Center
11:36AM 37.0672 -121.8672 132° Southeast 437 503 22,000 1,860 Climbing Oakland Center
11:37AM 36.9808 -121.7542 134° Southeast 449 517 23,800 1,680 Climbing Oakland Center
11:38AM 36.8958 -121.6400 133° Southeast 451 519 25,500 1,440 Climbing Oakland Center
11:39AM 36.8103 -121.5219 132° Southeast 458 527 26,800 720 Climbing Oakland Center
11:40AM 36.7100 -121.3869 133° Southeast 481 554 27,000 60 Climbing Oakland Center
11:41AM 36.6181 -121.2633 133° Southeast 486 559 27,000  Level Oakland Center
11:42AM 36.5258 -121.1403 133° Southeast 487 560 27,000  Level Oakland Center
11:43AM 36.4350 -121.0164 132° Southeast 487 560 27,000  Level Oakland Center
11:44AM 36.3422 -120.8931 133° Southeast 487 560 27,000  Level Oakland Center
11:45AM 36.2492 -120.7686 133° Southeast 490 564 27,000  Level Oakland Center
11:46AM 36.1561 -120.6444 133° Southeast 490 564 27,000  Level Oakland Center
11:47AM 36.0628 -120.5217 133° Southeast 490 564 27,000  Level Oakland Center
11:48AM 35.9689 -120.3986 133° Southeast 490 564 27,000  Level Oakland Center
11:49AM 35.8758 -120.2758 133° Southeast 489 563 27,000  Level Oakland Center
11:51AM 35.7622 -120.1286 134° Southeast 489 563 27,000  Level Oakland Center
11:52AM 35.6678 -120.0053 133° Southeast 490 564 27,000  Level Oakland Center
11:53AM 35.5564 -119.8992 142° Southeast 500 575 27,000  Level Oakland Center
11:54AM 35.4408 -119.8000 145° Southeast 502 578 27,000  Level Oakland Center
11:55AM 35.3261 -119.7008 145° Southeast 502 578 27,000  Level Oakland Center
11:56AM 35.2119 -119.6031 145° Southeast 500 575 27,000  Level Oakland Center
11:57AM 35.0981 -119.5061 145° Southeast 498 573 27,000  Level Oakland Center
11:58AM 34.9836 -119.4078 145° Southeast 501 577 27,000  Level Oakland Center
11:59AM 34.8692 -119.3111 145° Southeast 501 577 27,000 -960 Level Oakland Center
12:00PM 34.7575 -119.2175 145° Southeast 495 570 25,100 -2,100 Descending Oakland Center
12:01PM 34.6186 -119.1014 145° Southeast 461 531 22,000 -2,460 Descending Los Angeles Center
12:02PM 34.5036 -119.0031 145° Southeast 421 484 19,300 -2,400 Descending Los Angeles Center
12:03PM 34.4083 -118.9242 146° Southeast 414 476 17,100 -2,100 Descending Los Angeles Center
12:04PM 34.3125 -118.8653 153° Southeast 388 447 15,000 -2,040 Descending Los Angeles Center
12:05PM 34.2142 -118.8278 162° South 371 427 13,000 -1,680 Descending Los Angeles Center
12:06PM 34.1239 -118.7956 164° South 343 395 11,500 -1,200 Descending Los Angeles Center
12:07PM 34.0400 -118.7358 149° Southeast 327 376 10,600 -780 Descending Los Angeles Center
12:08PM 34.0269 -118.6278 98° East 307 353 10,000 -900 Descending Los Angeles Center
12:09PM 34.0167 -118.5256 97° East 307 353 8,800 -1,380 Descending Los Angeles Center
12:10PM 34.0133 -118.4306 92° East 293 337 7,200 -1,500 Descending Los Angeles Center
12:11PM 34.0194 -118.3353 86° East 286 329 5,800 -1,140 Descending Los Angeles Center
12:13PM 34.0247 -118.2492 86° East 272 313 4,700 -960 Descending Los Angeles Center
12:14PM 33.9897 -118.2061 134° Southeast 208 239 3,700 -1,140 Descending Los Angeles Center
12:15PM 33.9661 -118.2619 243° Southwest 193 222 2,400 -1,200 Descending Los Angeles Center
12:16PM 33.9586 -118.3319 263° West 183 211 1,300 -960 Descending Los Angeles Center
12:17PM 33.9547 -118.3803 264° West 162 186 500 -600 Descending Los Angeles Center
12:18PM 33.9503 -118.4236 263° West 141 162 100 -420 Descending Los Angeles Center